Time;durP1;ratioP1;P1;durP2;ratioP2;P2;SDS_P1;SDS_P2;PMS_P1;PMS_P2;Temp;Humidity;BMP_temperature;BMP_pressure;BME280_temperature;BME280_humidity;BME280_pressure;Samples;Min_cycle;Max_cycle;Signal;HPM_P1;HPM_P2
2023/08/09 00:00:09;;;;;;;2.30;2.05;;;;;;;;;;5114634;28;20044;-82
2023/08/09 00:02:37;;;;;;;2.42;1.92;;;;;;;;;;5113246;28;20105;-81
2023/08/09 00:05:05;;;;;;;4.78;1.88;;;;;;;;;;5119887;28;20498;-81
2023/08/09 00:07:32;;;;;;;4.43;2.13;;;;;;;;;;5118793;28;20492;-81
2023/08/09 00:09:59;;;;;;;6.15;1.90;;;;;;;;;;5117137;28;20416;-81
2023/08/09 00:12:27;;;;;;;3.70;2.17;;;;;;;;;;5119707;28;20056;-81
2023/08/09 00:14:54;;;;;;;4.88;2.58;;;;;;;;;;5121357;28;20094;-82
2023/08/09 00:17:21;;;;;;;9.70;1.83;;;;;;;;;;5121932;28;20545;-82
2023/08/09 00:19:49;;;;;;;2.70;2.00;;;;;;;;;;5120309;28;20646;-80
2023/08/09 00:22:16;;;;;;;5.85;2.55;;;;;;;;;;5119000;28;20704;-81
2023/08/09 00:24:44;;;;;;;2.38;2.00;;;;;;;;;;5118718;28;20100;-81
2023/08/09 00:27:11;;;;;;;12.07;2.65;;;;;;;;;;5118283;28;20052;-82
2023/08/09 00:29:39;;;;;;;3.15;2.38;;;;;;;;;;5117683;28;20055;-81
2023/08/09 00:32:07;;;;;;;4.47;2.70;;;;;;;;;;5117165;28;20492;-83
2023/08/09 00:34:34;;;;;;;5.55;2.50;;;;;;;;;;5117472;28;20507;-84
2023/08/09 00:37:01;;;;;;;6.38;3.60;;;;;;;;;;5119819;28;20130;-84
2023/08/09 00:39:30;;;;;;;3.72;2.80;;;;;;;;;;5117293;28;20048;-84
2023/08/09 00:41:57;;;;;;;5.90;3.17;;;;;;;;;;5115364;28;20054;-84
2023/08/09 00:44:25;;;;;;;3.53;2.60;;;;;;;;;;5114877;28;20092;-85
2023/08/09 00:46:52;;;;;;;8.30;3.05;;;;;;;;;;5114851;28;20063;-85
2023/08/09 00:49:19;;;;;;;5.10;3.90;;;;;;;;;;5115152;28;20055;-85
2023/08/09 00:51:47;;;;;;;5.25;3.20;;;;;;;;;;5115808;28;20426;-84
2023/08/09 00:54:14;;;;;;;6.53;3.35;;;;;;;;;;5116368;28;20051;-84
2023/08/09 00:56:42;;;;;;;4.47;3.58;;;;;;;;;;5118394;28;20454;-85
2023/08/09 00:59:10;;;;;;;3.55;2.97;;;;;;;;;;5115349;28;20101;-84
2023/08/09 01:01:37;;;;;;;5.82;3.25;;;;;;;;;;5114751;28;20052;-85
2023/08/09 01:04:04;;;;;;;8.02;3.72;;;;;;;;;;5114746;28;20097;-86
2023/08/09 01:06:37;;;;;;;6.07;3.03;;;;;;;;;;5115316;28;20051;-85
2023/08/09 01:09:23;;;;;;;5.80;3.65;;;;;;;;;;5114507;28;20051;-85
2023/08/09 01:11:55;;;;;;;4.10;3.30;;;;;;;;;;5115517;27;20102;-85
2023/08/09 01:14:22;;;;;;;5.25;3.78;;;;;;;;;;5114637;28;20097;-86
2023/08/09 01:16:52;;;;;;;6.43;3.20;;;;;;;;;;5114010;28;20048;-85
2023/08/09 01:19:39;;;;;;;4.45;3.40;;;;;;;;;;5114148;28;20097;-85
2023/08/09 01:22:15;;;;;;;5.28;3.47;;;;;;;;;;5115252;28;20079;-85
2023/08/09 01:24:43;;;;;;;3.83;3.40;;;;;;;;;;5113052;28;20048;-85
2023/08/09 01:27:10;;;;;;;8.55;4.60;;;;;;;;;;5115236;28;20079;-85
2023/08/09 01:29:38;;;;;;;7.65;3.88;;;;;;;;;;5114027;28;20058;-85
2023/08/09 01:32:05;;;;;;;7.57;3.80;;;;;;;;;;5115682;28;20472;-85
2023/08/09 01:34:33;;;;;;;9.82;4.63;;;;;;;;;;5115246;28;20051;-83
2023/08/09 01:37:05;;;;;;;6.47;4.45;;;;;;;;;;5115529;28;20066;-85
2023/08/09 01:39:34;;;;;;;6.95;4.78;;;;;;;;;;5119781;28;20082;-85
2023/08/09 01:42:01;;;;;;;5.97;4.25;;;;;;;;;;5121792;28;20043;-86
2023/08/09 01:44:29;;;;;;;6.38;3.47;;;;;;;;;;5122924;28;20093;-85
2023/08/09 01:46:56;;;;;;;6.68;4.78;;;;;;;;;;5121656;28;20069;-85
2023/08/09 01:49:23;;;;;;;9.32;4.28;;;;;;;;;;5121512;28;20073;-84
2023/08/09 01:51:51;;;;;;;8.80;4.82;;;;;;;;;;5119453;28;20119;-85
2023/08/09 01:54:19;;;;;;;11.00;4.50;;;;;;;;;;5119431;28;20090;-84
2023/08/09 01:56:46;;;;;;;7.32;4.03;;;;;;;;;;5118715;28;20044;-84
2023/08/09 01:59:14;;;;;;;5.93;4.50;;;;;;;;;;5120161;28;20048;-84
2023/08/09 02:01:41;;;;;;;7.57;5.07;;;;;;;;;;5118807;28;20075;-84
2023/08/09 02:04:09;;;;;;;5.57;4.32;;;;;;;;;;5120464;28;20471;-84
2023/08/09 02:06:38;;;;;;;8.18;4.25;;;;;;;;;;5120049;28;20518;-85
2023/08/09 02:09:06;;;;;;;7.35;4.78;;;;;;;;;;5118912;28;20098;-85
2023/08/09 02:11:34;;;;;;;4.93;4.20;;;;;;;;;;5118321;28;20075;-84
2023/08/09 02:14:01;;;;;;;5.00;4.50;;;;;;;;;;5117862;28;20047;-85
2023/08/09 02:16:28;;;;;;;6.53;4.88;;;;;;;;;;5117973;28;20101;-85
2023/08/09 02:18:56;;;;;;;4.60;4.13;;;;;;;;;;5117584;28;20043;-84
2023/08/09 02:21:23;;;;;;;6.35;4.82;;;;;;;;;;5115648;28;20052;-82
2023/08/09 02:23:50;;;;;;;9.70;4.95;;;;;;;;;;5113253;28;20120;-83
2023/08/09 02:26:21;;;;;;;11.45;4.97;;;;;;;;;;5113867;28;20047;-83
2023/08/09 02:28:51;;;;;;;9.98;5.60;;;;;;;;;;5114108;28;20145;-84
2023/08/09 02:31:18;;;;;;;7.78;4.63;;;;;;;;;;5113351;28;20051;-83
2023/08/09 02:33:46;;;;;;;6.32;4.80;;;;;;;;;;5113150;28;20047;-83
2023/08/09 02:36:13;;;;;;;5.50;4.72;;;;;;;;;;5113098;28;20464;-82
2023/08/09 02:38:40;;;;;;;8.27;5.30;;;;;;;;;;5113899;28;20047;-84
2023/08/09 02:41:09;;;;;;;8.73;5.80;;;;;;;;;;5115994;28;20096;-83
2023/08/09 02:43:36;;;;;;;7.60;5.22;;;;;;;;;;5114626;28;20040;-84
2023/08/09 02:46:06;;;;;;;6.22;4.78;;;;;;;;;;5113930;28;20044;-82
2023/08/09 02:48:34;;;;;;;8.95;6.18;;;;;;;;;;5113105;28;20043;-84
2023/08/09 02:51:01;;;;;;;7.15;5.50;;;;;;;;;;5114044;28;20048;-83
2023/08/09 02:53:38;;;;;;;6.32;5.07;;;;;;;;;;5113382;28;20047;-82
2023/08/09 02:56:05;;;;;;;6.47;5.63;;;;;;;;;;5113186;28;20456;-82
2023/08/09 02:58:32;;;;;;;9.75;5.43;;;;;;;;;;5112494;28;20504;-82
2023/08/09 03:01:00;;;;;;;12.15;6.65;;;;;;;;;;5112819;28;20137;-82
2023/08/09 03:03:27;;;;;;;5.90;5.38;;;;;;;;;;5112667;28;20055;-82
2023/08/09 03:05:54;;;;;;;8.98;7.25;;;;;;;;;;5113915;28;20441;-83
2023/08/09 03:08:22;;;;;;;6.65;5.80;;;;;;;;;;5112291;28;20514;-84
2023/08/09 03:10:49;;;;;;;6.72;6.03;;;;;;;;;;5113536;28;20120;-83
2023/08/09 03:13:16;;;;;;;11.07;6.22;;;;;;;;;;5112877;28;20052;-82
2023/08/09 03:15:43;;;;;;;7.70;5.60;;;;;;;;;;5122526;28;20075;-84
2023/08/09 03:18:11;;;;;;;5.60;5.10;;;;;;;;;;5119315;28;20526;-83
2023/08/09 03:20:38;;;;;;;10.75;5.90;;;;;;;;;;5119898;28;20056;-84
2023/08/09 03:23:07;;;;;;;6.38;5.72;;;;;;;;;;5121522;28;20389;-84
2023/08/09 03:25:35;;;;;;;9.13;6.97;;;;;;;;;;5119219;28;20059;-84
2023/08/09 03:28:02;;;;;;;8.43;6.68;;;;;;;;;;5118302;28;20400;-84
2023/08/09 03:30:30;;;;;;;14.05;7.32;;;;;;;;;;5118590;28;20052;-84
2023/08/09 03:32:57;;;;;;;9.23;6.18;;;;;;;;;;5117599;28;20100;-83
2023/08/09 03:35:24;;;;;;;9.82;5.75;;;;;;;;;;5117844;28;20047;-81
2023/08/09 03:37:51;;;;;;;10.02;5.75;;;;;;;;;;5118654;28;20567;-82
2023/08/09 03:40:19;;;;;;;6.82;4.70;;;;;;;;;;5118342;28;20100;-82
2023/08/09 03:42:46;;;;;;;2.38;2.15;;;;;;;;;;5116389;28;20070;-82
2023/08/09 03:45:13;;;;;;;1.90;1.80;;;;;;;;;;5115944;28;20051;-83
2023/08/09 03:47:40;;;;;;;1.58;1.48;;;;;;;;;;5120459;28;20047;-82
2023/08/09 03:50:08;;;;;;;1.73;1.73;;;;;;;;;;5122851;27;20047;-83
2023/08/09 03:52:35;;;;;;;1.65;1.55;;;;;;;;;;5121913;28;20051;-83
2023/08/09 03:55:03;;;;;;;2.10;1.83;;;;;;;;;;5124345;27;20050;-83
2023/08/09 03:57:31;;;;;;;2.20;1.67;;;;;;;;;;5122673;27;20093;-83
2023/08/09 03:59:59;;;;;;;1.25;1.17;;;;;;;;;;5119353;28;20560;-80
2023/08/09 04:02:26;;;;;;;1.45;1.35;;;;;;;;;;5120929;27;20393;-81
2023/08/09 04:04:54;;;;;;;1.80;1.70;;;;;;;;;;5121392;27;20049;-81
2023/08/09 04:07:21;;;;;;;2.65;2.45;;;;;;;;;;5119689;28;20125;-80
2023/08/09 04:09:48;;;;;;;3.17;2.00;;;;;;;;;;5119841;28;20075;-80
2023/08/09 04:12:16;;;;;;;1.30;1.30;;;;;;;;;;5120031;28;20093;-80
2023/08/09 04:14:43;;;;;;;4.78;1.45;;;;;;;;;;5120286;28;20048;-80
2023/08/09 04:17:10;;;;;;;2.85;1.30;;;;;;;;;;5119662;28;20050;-81
2023/08/09 04:19:37;;;;;;;2.05;1.17;;;;;;;;;;5119369;28;20560;-82
2023/08/09 04:22:05;;;;;;;1.42;1.33;;;;;;;;;;5120107;28;20492;-81
2023/08/09 04:24:32;;;;;;;2.50;1.65;;;;;;;;;;5120161;27;20050;-82
2023/08/09 04:26:59;;;;;;;1.58;1.50;;;;;;;;;;5121119;27;20108;-81
2023/08/09 04:29:27;;;;;;;1.65;1.60;;;;;;;;;;5120373;27;20059;-82
2023/08/09 04:31:54;;;;;;;1.45;1.27;;;;;;;;;;5120816;27;20499;-82
2023/08/09 04:34:23;;;;;;;1.63;1.52;;;;;;;;;;5119634;28;20063;-83
2023/08/09 04:36:52;;;;;;;1.55;1.55;;;;;;;;;;5120450;27;20098;-82
2023/08/09 04:39:19;;;;;;;1.75;1.65;;;;;;;;;;5119669;28;20071;-83
2023/08/09 04:41:47;;;;;;;3.83;1.90;;;;;;;;;;5121175;27;20058;-83
2023/08/09 04:44:14;;;;;;;2.10;2.00;;;;;;;;;;5119507;28;20055;-80
2023/08/09 04:46:41;;;;;;;8.43;4.10;;;;;;;;;;5119463;28;20513;-82
2023/08/09 04:49:09;;;;;;;15.63;4.55;;;;;;;;;;5122972;27;20051;-83
2023/08/09 04:51:36;;;;;;;15.88;4.72;;;;;;;;;;5127298;27;20392;-83
2023/08/09 04:54:03;;;;;;;5.00;2.00;;;;;;;;;;5126553;28;20419;-82
2023/08/09 04:56:32;;;;;;;7.30;2.85;;;;;;;;;;5127347;27;20044;-83
2023/08/09 04:58:59;;;;;;;7.28;2.63;;;;;;;;;;5123526;27;20047;-81
2023/08/09 05:01:26;;;;;;;2.75;2.53;;;;;;;;;;5122130;28;20044;-83
2023/08/09 05:03:54;;;;;;;5.43;2.67;;;;;;;;;;5122743;28;20052;-82
2023/08/09 05:06:22;;;;;;;2.58;2.38;;;;;;;;;;5123827;28;20099;-82
2023/08/09 05:08:49;;;;;;;3.58;2.17;;;;;;;;;;5121819;28;20052;-83
2023/08/09 05:11:16;;;;;;;3.85;2.67;;;;;;;;;;5121087;28;20052;-83
2023/08/09 05:13:45;;;;;;;3.70;3.10;;;;;;;;;;5122513;27;20124;-83
2023/08/09 05:16:12;;;;;;;3.78;2.50;;;;;;;;;;5119512;28;20048;-83
2023/08/09 05:18:40;;;;;;;2.58;2.28;;;;;;;;;;5118688;28;20040;-81
2023/08/09 05:21:07;;;;;;;1.95;1.80;;;;;;;;;;5117690;28;20050;-83
2023/08/09 05:23:35;;;;;;;1.48;1.20;;;;;;;;;;5120070;28;20097;-80
2023/08/09 05:26:02;;;;;;;4.57;0.90;;;;;;;;;;5116222;28;20158;-80
2023/08/09 05:28:29;;;;;;;0.50;0.40;;;;;;;;;;5120493;28;20051;-80
2023/08/09 05:30:56;;;;;;;0.30;0.30;;;;;;;;;;5120408;28;20504;-82
2023/08/09 05:33:24;;;;;;;3.55;0.40;;;;;;;;;;5117816;27;20058;-79
2023/08/09 05:35:51;;;;;;;2.83;0.50;;;;;;;;;;5118679;28;20078;-81
2023/08/09 05:38:18;;;;;;;3.50;0.40;;;;;;;;;;5119604;28;20047;-80
2023/08/09 05:40:45;;;;;;;0.63;0.30;;;;;;;;;;5119205;28;20047;-80
2023/08/09 05:43:13;;;;;;;0.65;0.35;;;;;;;;;;5117376;28;20089;-81
2023/08/09 05:45:41;;;;;;;0.52;0.30;;;;;;;;;;5114892;28;20048;-80
2023/08/09 05:48:09;;;;;;;0.30;0.30;;;;;;;;;;5116987;28;20062;-81
2023/08/09 05:50:36;;;;;;;1.58;0.10;;;;;;;;;;5116629;28;20058;-80
2023/08/09 05:53:03;;;;;;;0.90;0.30;;;;;;;;;;5116815;28;20048;-81
2023/08/09 05:55:31;;;;;;;0.88;0.35;;;;;;;;;;5116205;28;20072;-81
2023/08/09 05:57:58;;;;;;;0.45;0.22;;;;;;;;;;5115252;28;20069;-81
2023/08/09 06:00:25;;;;;;;2.70;0.40;;;;;;;;;;5119648;28;20082;-82
2023/08/09 06:02:53;;;;;;;0.25;0.20;;;;;;;;;;5120853;28;20039;-81
2023/08/09 06:05:25;;;;;;;0.20;0.20;;;;;;;;;;5118275;28;20536;-82
2023/08/09 06:07:53;;;;;;;1.85;0.40;;;;;;;;;;5116267;28;20054;-82
2023/08/09 06:10:20;;;;;;;1.13;0.60;;;;;;;;;;5114752;28;20051;-80
2023/08/09 06:12:48;;;;;;;0.50;0.30;;;;;;;;;;5115311;28;20051;-82
2023/08/09 06:15:15;;;;;;;0.40;0.40;;;;;;;;;;5115367;28;20051;-80
2023/08/09 06:17:42;;;;;;;1.85;0.70;;;;;;;;;;5113223;28;20051;-82
2023/08/09 06:20:12;;;;;;;3.58;1.67;;;;;;;;;;5113844;28;20047;-80
2023/08/09 06:22:43;;;;;;;5.63;1.98;;;;;;;;;;5113707;28;20449;-82
2023/08/09 06:25:11;;;;;;;2.08;0.50;;;;;;;;;;5123101;28;20081;-83
2023/08/09 06:27:38;;;;;;;0.93;0.73;;;;;;;;;;5126516;28;20079;-84
2023/08/09 06:30:06;;;;;;;0.98;0.50;;;;;;;;;;5121394;28;20055;-84
2023/08/09 06:32:33;;;;;;;1.27;0.65;;;;;;;;;;5124021;28;20058;-84
2023/08/09 06:35:01;;;;;;;0.70;0.30;;;;;;;;;;5121182;28;20047;-82
2023/08/09 06:37:29;;;;;;;2.47;0.52;;;;;;;;;;5122730;28;20051;-84
2023/08/09 06:39:56;;;;;;;0.98;0.60;;;;;;;;;;5120393;28;20047;-84
2023/08/09 06:42:23;;;;;;;0.10;0.10;;;;;;;;;;5119647;28;20044;-85
2023/08/09 06:44:50;;;;;;;0.68;0.50;;;;;;;;;;5119572;28;20047;-84
2023/08/09 06:47:18;;;;;;;0.32;0.10;;;;;;;;;;5118996;28;20039;-84
2023/08/09 06:49:45;;;;;;;0.20;0.20;;;;;;;;;;5119297;28;20052;-81
2023/08/09 06:52:12;;;;;;;0.20;0.20;;;;;;;;;;5117191;28;20511;-85
2023/08/09 06:54:39;;;;;;;0.15;0.15;;;;;;;;;;5126773;28;20051;-84
2023/08/09 06:57:06;;;;;;;0.10;0.10;;;;;;;;;;5126358;28;20040;-82
2023/08/09 06:59:34;;;;;;;0.57;0.10;;;;;;;;;;5118682;28;20100;-84
2023/08/09 07:02:01;;;;;;;0.28;0.20;;;;;;;;;;5116424;28;20076;-85
2023/08/09 07:04:28;;;;;;;1.95;0.10;;;;;;;;;;5115535;28;20062;-83
2023/08/09 07:06:56;;;;;;;0.43;0.10;;;;;;;;;;5114062;28;20043;-84
2023/08/09 07:09:23;;;;;;;1.98;0.50;;;;;;;;;;5116083;28;20047;-84
2023/08/09 07:11:50;;;;;;;0.30;0.30;;;;;;;;;;5112931;28;20112;-82
2023/08/09 07:14:17;;;;;;;0.15;0.10;;;;;;;;;;5113132;28;20047;-82
2023/08/09 07:16:45;;;;;;;1.10;0.30;;;;;;;;;;5112499;28;20052;-80
2023/08/09 07:19:12;;;;;;;0.30;0.30;;;;;;;;;;5112878;28;20039;-83
2023/08/09 07:21:39;;;;;;;1.52;0.20;;;;;;;;;;5112963;28;20047;-82
2023/08/09 07:24:07;;;;;;;0.13;0.13;;;;;;;;;;5114439;28;20048;-83
2023/08/09 07:26:34;;;;;;;0.28;0.10;;;;;;;;;;5112397;28;20121;-83
2023/08/09 07:29:03;;;;;;;0.40;0.20;;;;;;;;;;5113350;28;20453;-82
2023/08/09 07:31:30;;;;;;;1.15;0.10;;;;;;;;;;5114482;28;20101;-81
2023/08/09 07:33:58;;;;;;;0.15;0.15;;;;;;;;;;5115307;28;20495;-83
2023/08/09 07:36:25;;;;;;;0.65;0.20;;;;;;;;;;5118234;28;20070;-84
2023/08/09 07:38:54;;;;;;;0.43;0.40;;;;;;;;;;5116819;28;20075;-83
2023/08/09 07:41:21;;;;;;;3.00;0.30;;;;;;;;;;5116122;28;20048;-84
2023/08/09 07:43:49;;;;;;;0.43;0.20;;;;;;;;;;5114833;28;20047;-83
2023/08/09 07:46:16;;;;;;;1.80;0.35;;;;;;;;;;5114405;28;20066;-83
2023/08/09 07:48:43;;;;;;;0.22;0.22;;;;;;;;;;5117458;28;20056;-83
2023/08/09 07:51:11;;;;;;;0.98;0.20;;;;;;;;;;5116007;28;20055;-83
2023/08/09 07:53:40;;;;;;;0.52;0.38;;;;;;;;;;5114406;28;20101;-84
2023/08/09 07:56:10;;;;;;;0.22;0.22;;;;;;;;;;5114426;28;20059;-83
2023/08/09 07:58:37;;;;;;;0.20;0.20;;;;;;;;;;5113323;28;20415;-84
2023/08/09 08:01:04;;;;;;;0.88;0.10;;;;;;;;;;5118786;28;20092;-84
2023/08/09 08:03:32;;;;;;;0.77;0.20;;;;;;;;;;5116143;28;20043;-84
2023/08/09 08:05:59;;;;;;;0.10;0.10;;;;;;;;;;5114431;28;20466;-82
2023/08/09 08:08:27;;;;;;;0.20;0.20;;;;;;;;;;5115223;28;20496;-82
2023/08/09 08:10:55;;;;;;;0.10;0.10;;;;;;;;;;5114597;28;20047;-83
2023/08/09 08:13:22;;;;;;;0.20;0.20;;;;;;;;;;5114826;28;20100;-82
2023/08/09 08:15:50;;;;;;;0.20;0.20;;;;;;;;;;5113450;28;20056;-81
2023/08/09 08:18:17;;;;;;;0.17;0.13;;;;;;;;;;5113474;28;20070;-81
2023/08/09 08:20:45;;;;;;;1.23;0.10;;;;;;;;;;5114090;28;20069;-82
2023/08/09 08:23:12;;;;;;;0.10;0.10;;;;;;;;;;5113580;28;20113;-82
2023/08/09 08:25:39;;;;;;;0.17;0.17;;;;;;;;;;5112748;28;20550;-81
2023/08/09 08:28:06;;;;;;;0.40;0.10;;;;;;;;;;5115937;28;20054;-82
2023/08/09 08:30:34;;;;;;;0.30;0.30;;;;;;;;;;5114622;28;20051;-81
2023/08/09 08:33:01;;;;;;;0.30;0.30;;;;;;;;;;5115701;28;20047;-82
2023/08/09 08:35:33;;;;;;;0.40;0.22;;;;;;;;;;5116732;28;20054;-81
2023/08/09 08:38:01;;;;;;;2.05;0.50;;;;;;;;;;5116716;28;20054;-81
2023/08/09 08:40:31;;;;;;;0.47;0.20;;;;;;;;;;5116112;28;20040;-82
2023/08/09 08:42:59;;;;;;;5.35;1.67;;;;;;;;;;5116488;28;20518;-83
2023/08/09 08:45:26;;;;;;;4.93;1.15;;;;;;;;;;5116795;28;20510;-81
2023/08/09 08:47:53;;;;;;;0.20;0.20;;;;;;;;;;5116471;28;20051;-82
2023/08/09 08:50:21;;;;;;;0.22;0.20;;;;;;;;;;5116274;28;20043;-81
2023/08/09 08:52:51;;;;;;;0.17;0.17;;;;;;;;;;5115180;28;20055;-81
2023/08/09 08:55:19;;;;;;;0.25;0.25;;;;;;;;;;5115330;28;20519;-81
2023/08/09 08:57:47;;;;;;;1.02;0.20;;;;;;;;;;5116590;28;20089;-81
2023/08/09 09:00:18;;;;;;;0.10;0.10;;;;;;;;;;5115158;28;20047;-82
2023/08/09 09:02:48;;;;;;;0.65;0.10;;;;;;;;;;5116040;28;20048;-80
2023/08/09 09:05:16;;;;;;;0.80;0.20;;;;;;;;;;5115675;28;20043;-80
2023/08/09 09:07:50;;;;;;;0.10;0.10;;;;;;;;;;5116985;28;20049;-81
2023/08/09 09:10:20;;;;;;;0.10;0.10;;;;;;;;;;5115601;28;20047;-81
2023/08/09 09:12:53;;;;;;;0.10;0.10;;;;;;;;;;5115324;28;20067;-81
2023/08/09 09:15:21;;;;;;;0.35;0.20;;;;;;;;;;5116214;28;20048;-81
2023/08/09 09:17:48;;;;;;;0.30;0.30;;;;;;;;;;5115310;28;20499;-81
2023/08/09 09:20:21;;;;;;;0.20;0.20;;;;;;;;;;5115016;28;20126;-81
2023/08/09 09:22:48;;;;;;;0.20;0.15;;;;;;;;;;5116211;28;20135;-82
2023/08/09 09:25:17;;;;;;;0.10;0.10;;;;;;;;;;5122349;28;20051;-82
2023/08/09 09:27:47;;;;;;;0.17;0.17;;;;;;;;;;5120203;28;20071;-82
2023/08/09 09:30:14;;;;;;;0.10;0.10;;;;;;;;;;5121505;28;20051;-82
2023/08/09 09:32:56;;;;;;;0.20;0.20;;;;;;;;;;5121989;28;20100;-81
2023/08/09 09:35:28;;;;;;;2.38;0.30;;;;;;;;;;5124435;28;20044;-82
2023/08/09 09:37:58;;;;;;;2.20;0.38;;;;;;;;;;5123092;28;20054;-82
2023/08/09 09:40:27;;;;;;;1.13;0.40;;;;;;;;;;5122293;28;20044;-82
2023/08/09 09:42:56;;;;;;;0.20;0.20;;;;;;;;;;5123113;28;20048;-82
2023/08/09 09:45:27;;;;;;;0.22;0.22;;;;;;;;;;5118906;28;20461;-81
2023/08/09 09:47:55;;;;;;;1.98;0.40;;;;;;;;;;5119195;28;20435;-82
2023/08/09 09:50:27;;;;;;;0.57;0.30;;;;;;;;;;5120994;28;20055;-81
2023/08/09 09:52:55;;;;;;;1.63;0.30;;;;;;;;;;5118994;28;20051;-83
2023/08/09 09:55:26;;;;;;;1.38;0.38;;;;;;;;;;5119603;28;20130;-82
2023/08/09 09:57:54;;;;;;;0.60;0.40;;;;;;;;;;5119431;28;20043;-81
2023/08/09 10:00:27;;;;;;;0.65;0.32;;;;;;;;;;5119577;28;20051;-82
2023/08/09 10:02:55;;;;;;;0.68;0.47;;;;;;;;;;5119901;28;20043;-82
2023/08/09 10:05:26;;;;;;;0.43;0.40;;;;;;;;;;5116609;28;20100;-81
2023/08/09 10:07:55;;;;;;;1.23;0.32;;;;;;;;;;5118188;28;20069;-80
2023/08/09 10:10:26;;;;;;;0.38;0.35;;;;;;;;;;5118706;28;20539;-79
2023/08/09 10:12:55;;;;;;;1.85;0.30;;;;;;;;;;5118660;28;20044;-81
2023/08/09 10:15:32;;;;;;;0.98;0.32;;;;;;;;;;5117256;28;20093;-80
2023/08/09 10:18:02;;;;;;;0.30;0.30;;;;;;;;;;5115762;28;20077;-81
2023/08/09 10:20:30;;;;;;;1.10;0.40;;;;;;;;;;5116825;28;20048;-80
2023/08/09 10:22:58;;;;;;;0.45;0.30;;;;;;;;;;5115318;28;20047;-81
2023/08/09 10:25:45;;;;;;;0.40;0.40;;;;;;;;;;5116127;28;20100;-80
2023/08/09 10:28:12;;;;;;;0.40;0.40;;;;;;;;;;5116221;28;20047;-80
2023/08/09 10:30:45;;;;;;;0.40;0.40;;;;;;;;;;5116422;28;20499;-81
2023/08/09 10:33:18;;;;;;;0.50;0.40;;;;;;;;;;5116049;28;20043;-80
2023/08/09 10:35:50;;;;;;;1.17;0.85;;;;;;;;;;5114182;28;20514;-80
2023/08/09 10:38:19;;;;;;;0.95;0.60;;;;;;;;;;5114789;28;20473;-79
2023/08/09 10:40:52;;;;;;;0.85;0.38;;;;;;;;;;5115653;28;20044;-80
2023/08/09 10:43:21;;;;;;;2.80;0.50;;;;;;;;;;5115903;28;20043;-80
2023/08/09 10:45:49;;;;;;;0.57;0.57;;;;;;;;;;5114926;28;20101;-80
2023/08/09 10:48:24;;;;;;;1.20;0.50;;;;;;;;;;5117308;28;20506;-79
2023/08/09 10:51:20;;;;;;;1.60;0.60;;;;;;;;;;5115232;28;20043;-79
2023/08/09 10:54:04;;;;;;;0.65;0.57;;;;;;;;;;5106901;28;20070;-80
2023/08/09 10:56:31;;;;;;;;;;;;;;;;;;5126516;28;20059;-81
2023/08/09 10:59:06;;;;;;;0.65;0.47;;;;;;;;;;5121690;28;19941;-79
2023/08/09 11:01:34;;;;;;;1.08;0.40;;;;;;;;;;5124048;28;20073;-79
2023/08/09 11:04:04;;;;;;;0.45;0.30;;;;;;;;;;5122576;28;20078;-81
2023/08/09 11:06:37;;;;;;;0.60;0.40;;;;;;;;;;5121755;28;20044;-81
2023/08/09 11:09:08;;;;;;;0.47;0.40;;;;;;;;;;5123508;28;20073;-80
2023/08/09 11:11:36;;;;;;;0.40;0.30;;;;;;;;;;5125332;28;20081;-82
2023/08/09 11:14:04;;;;;;;0.75;0.50;;;;;;;;;;5125260;28;20069;-80
2023/08/09 11:16:31;;;;;;;0.50;0.50;;;;;;;;;;5122531;28;20055;-80
2023/08/09 11:19:03;;;;;;;1.08;0.40;;;;;;;;;;5121838;28;20079;-81
2023/08/09 11:21:40;;;;;;;0.20;0.20;;;;;;;;;;5121092;28;20065;-80
2023/08/09 11:24:08;;;;;;;0.40;0.40;;;;;;;;;;5122508;28;20097;-80
2023/08/09 11:26:36;;;;;;;1.58;0.50;;;;;;;;;;5119846;28;20056;-80
2023/08/09 11:29:04;;;;;;;0.35;0.35;;;;;;;;;;5119366;28;20047;-81
2023/08/09 11:31:39;;;;;;;2.53;0.45;;;;;;;;;;5118094;28;20055;-80
2023/08/09 11:34:08;;;;;;;0.95;0.57;;;;;;;;;;5119611;28;20093;-80
2023/08/09 11:36:36;;;;;;;0.90;0.40;;;;;;;;;;5119855;28;20093;-80
2023/08/09 11:39:05;;;;;;;1.80;0.40;;;;;;;;;;5116970;28;20052;-80
2023/08/09 11:41:48;;;;;;;0.40;0.40;;;;;;;;;;5118811;28;20062;-80
2023/08/09 11:44:20;;;;;;;0.77;0.30;;;;;;;;;;5118710;28;20437;-80
2023/08/09 11:46:48;;;;;;;4.78;0.50;;;;;;;;;;5116669;28;20479;-79
2023/08/09 11:49:15;;;;;;;0.77;0.60;;;;;;;;;;5118341;28;20043;-80
2023/08/09 11:51:42;;;;;;;1.05;0.40;;;;;;;;;;5118421;28;20059;-80
2023/08/09 11:54:10;;;;;;;1.08;0.52;;;;;;;;;;5119782;28;20473;-80
2023/08/09 11:56:37;;;;;;;0.95;0.40;;;;;;;;;;5121214;28;20104;-80
2023/08/09 11:59:06;;;;;;;2.95;0.47;;;;;;;;;;5119059;28;20035;-82
2023/08/09 12:01:38;;;;;;;0.40;0.40;;;;;;;;;;5121285;28;20082;-81
2023/08/09 12:04:10;;;;;;;0.60;0.60;;;;;;;;;;5122643;28;20058;-81
2023/08/09 12:06:42;;;;;;;2.30;0.50;;;;;;;;;;5119955;28;20491;-81
2023/08/09 12:09:34;;;;;;;0.85;0.35;;;;;;;;;;5123388;28;20124;-81
2023/08/09 12:12:12;;;;;;;3.00;0.57;;;;;;;;;;5125203;28;20052;-80
2023/08/09 12:14:41;;;;;;;0.85;0.50;;;;;;;;;;5127140;28;20104;-79
2023/08/09 12:17:17;;;;;;;0.93;0.60;;;;;;;;;;5126528;28;20056;-80
2023/08/09 12:19:48;;;;;;;3.33;0.60;;;;;;;;;;5128147;28;20416;-80
2023/08/09 12:22:16;;;;;;;1.00;0.57;;;;;;;;;;5125430;28;20572;-82
2023/08/09 12:24:43;;;;;;;0.50;0.50;;;;;;;;;;5126759;28;20044;-81
2023/08/09 12:27:11;;;;;;;1.02;0.50;;;;;;;;;;5124868;28;20466;-81
2023/08/09 12:29:38;;;;;;;0.98;0.43;;;;;;;;;;5122231;28;20108;-82
2023/08/09 12:32:05;;;;;;;0.50;0.50;;;;;;;;;;5124406;28;20422;-81
2023/08/09 12:34:33;;;;;;;0.50;0.47;;;;;;;;;;5125704;28;20047;-81
2023/08/09 12:37:00;;;;;;;3.80;0.70;;;;;;;;;;5123751;28;20051;-80
2023/08/09 12:39:27;;;;;;;1.75;0.40;;;;;;;;;;5124667;28;20065;-82
2023/08/09 12:41:56;;;;;;;1.75;0.50;;;;;;;;;;5122153;28;20051;-80
2023/08/09 12:44:24;;;;;;;0.68;0.52;;;;;;;;;;5123513;28;20109;-80
2023/08/09 12:46:52;;;;;;;2.47;0.60;;;;;;;;;;5124720;28;20096;-81
2023/08/09 12:49:20;;;;;;;0.50;0.50;;;;;;;;;;5127423;28;20485;-81
2023/08/09 12:51:47;;;;;;;0.77;0.75;;;;;;;;;;5125549;28;20576;-81
2023/08/09 12:54:14;;;;;;;1.52;0.45;;;;;;;;;;5126406;28;20515;-80
2023/08/09 12:56:41;;;;;;;1.52;0.50;;;;;;;;;;5124458;28;20082;-81
2023/08/09 12:59:09;;;;;;;0.40;0.40;;;;;;;;;;5125095;28;20077;-80
2023/08/09 13:01:36;;;;;;;0.60;0.50;;;;;;;;;;5124431;28;20423;-81
2023/08/09 13:04:05;;;;;;;0.40;0.40;;;;;;;;;;5126780;28;20051;-80
2023/08/09 13:06:32;;;;;;;1.00;0.55;;;;;;;;;;5122387;28;20047;-81
2023/08/09 13:09:00;;;;;;;0.38;0.38;;;;;;;;;;5122128;28;20044;-80
2023/08/09 13:11:28;;;;;;;0.73;0.40;;;;;;;;;;5120072;28;20518;-80
2023/08/09 13:13:55;;;;;;;0.40;0.40;;;;;;;;;;5122410;28;20104;-80
2023/08/09 13:16:22;;;;;;;2.38;0.57;;;;;;;;;;5119715;28;20109;-80
2023/08/09 13:18:49;;;;;;;1.15;0.70;;;;;;;;;;5119977;28;20054;-79
2023/08/09 13:21:17;;;;;;;0.60;0.60;;;;;;;;;;5119060;28;20044;-80
2023/08/09 13:23:45;;;;;;;0.88;0.57;;;;;;;;;;5117177;28;20049;-79
2023/08/09 13:26:12;;;;;;;0.60;0.60;;;;;;;;;;5118928;28;20056;-81
2023/08/09 13:28:40;;;;;;;0.47;0.40;;;;;;;;;;5118750;28;20050;-79
2023/08/09 13:31:09;;;;;;;0.90;0.50;;;;;;;;;;5116452;28;20047;-80
2023/08/09 13:33:37;;;;;;;0.95;0.50;;;;;;;;;;5118171;28;20051;-80
2023/08/09 13:36:05;;;;;;;2.88;0.57;;;;;;;;;;5117995;28;20089;-79
2023/08/09 13:38:34;;;;;;;0.70;0.70;;;;;;;;;;5118053;28;20484;-79
2023/08/09 13:41:02;;;;;;;0.60;0.60;;;;;;;;;;5118127;28;20117;-80
2023/08/09 13:43:29;;;;;;;3.80;0.55;;;;;;;;;;5118226;28;20040;-79
2023/08/09 13:46:00;;;;;;;0.93;0.52;;;;;;;;;;5117807;28;20043;-80
2023/08/09 13:48:27;;;;;;;0.60;0.40;;;;;;;;;;5117592;28;20526;-79
2023/08/09 13:50:54;;;;;;;0.50;0.45;;;;;;;;;;5116948;28;20047;-78
2023/08/09 13:53:21;;;;;;;1.85;0.70;;;;;;;;;;5117394;28;20435;-79
2023/08/09 13:55:48;;;;;;;0.52;0.52;;;;;;;;;;5115843;28;20051;-80
2023/08/09 13:58:16;;;;;;;0.63;0.30;;;;;;;;;;5114767;28;20108;-79
2023/08/09 14:00:43;;;;;;;0.40;0.40;;;;;;;;;;5115082;28;20043;-80
2023/08/09 14:03:11;;;;;;;0.73;0.40;;;;;;;;;;5116899;28;20066;-79
2023/08/09 14:05:39;;;;;;;0.93;0.60;;;;;;;;;;5116605;28;20077;-79
2023/08/09 14:08:06;;;;;;;0.52;0.50;;;;;;;;;;5116898;28;20120;-79
2023/08/09 14:10:33;;;;;;;0.75;0.60;;;;;;;;;;5114643;28;20130;-80
2023/08/09 14:13:01;;;;;;;0.38;0.38;;;;;;;;;;5117297;28;20052;-79
2023/08/09 14:15:28;;;;;;;0.75;0.60;;;;;;;;;;5116746;28;20048;-79
2023/08/09 14:17:56;;;;;;;0.40;0.32;;;;;;;;;;5115953;28;20054;-79
2023/08/09 14:20:23;;;;;;;0.35;0.35;;;;;;;;;;5113828;28;20103;-80
2023/08/09 14:22:51;;;;;;;1.00;0.40;;;;;;;;;;5121905;28;20044;-80
2023/08/09 14:25:19;;;;;;;0.68;0.40;;;;;;;;;;5123271;28;20066;-81
2023/08/09 14:27:46;;;;;;;0.57;0.50;;;;;;;;;;5120724;28;20047;-79
2023/08/09 14:30:14;;;;;;;2.28;0.60;;;;;;;;;;5121588;28;20051;-79
2023/08/09 14:32:41;;;;;;;0.55;0.55;;;;;;;;;;5122157;28;20104;-81
2023/08/09 14:35:10;;;;;;;0.50;0.50;;;;;;;;;;5120457;28;20104;-80
2023/08/09 14:37:38;;;;;;;0.77;0.50;;;;;;;;;;5118689;28;20059;-79
2023/08/09 14:40:07;;;;;;;0.32;0.32;;;;;;;;;;5120077;28;20043;-80
2023/08/09 14:42:41;;;;;;;0.60;0.60;;;;;;;;;;5118822;28;20044;-80
2023/08/09 14:45:09;;;;;;;4.07;0.70;;;;;;;;;;5118865;28;20046;-81
2023/08/09 14:47:38;;;;;;;0.45;0.40;;;;;;;;;;5119459;28;20051;-79
2023/08/09 14:50:06;;;;;;;2.78;0.70;;;;;;;;;;5116197;28;20059;-79